Weather History for KFOD - July, 2013

Change the Weather History Date:

Saturday, July 13, 2013

  Actual Average Record
Temperature  
Mean Temperature 74 °F -  
Max Temperature 78 °F 86 °F 100 °F (1954)
Min Temperature 69 °F 64 °F 48 °F (1950)
Cooling Degree Days 8    
Growing Degree Days 24 (Base 50)    
Moisture  
Dew Point 60 °F    
Average Humidity 61    
Maximum Humidity 73    
Minimum Humidity 53    
Precipitation  
Precipitation 0.00 in - - ()
Sea Level Pressure  
Sea Level Pressure 30.02 in    
Wind  
Wind Speed 12 mph (SSE)    
Max Wind Speed 17 mph    
Max Gust Speed 24 mph    
Visibility 10 miles    
Events      
Averages and records for this station are not official NWS values.
T = Trace of Precipitation, MM = Missing Value Source: NWS Daily Summary

Daily Weather History Graph

Daily Weather History Graph

Search for Another Location

Airport or City:

Trip Planner

Search our weather history database for the weather conditions in past years. The results will help you decide how hot, cold, wet, or windy it might be!

Date:

Astronomy

Jul. 13, 2013 Rise Set
Actual Time 5:51 AM CDT 8:53 PM CDT
Civil Twilight 5:17 AM CDT 9:27 PM CDT
Nautical Twilight 4:34 AM CDT 10:10 PM CDT
Astronomical Twilight 3:42 AM CDT 11:01 PM CDT
Moon 11:16 AM CDT (7/13) 11:25 PM CDT (7/13)
Length of Visible Light 16h 09m
Length of Day
15h 02m
Waxing Crescent, 26% of the Moon is Illuminated
Jul 13
Waxing Crescent
Jul 15
First Quarter
Jul 22
Full
Jul 29
Last Quarter
Aug 6
New

Hourly Weather History & Observations

Time (CDT) Temp. Dew Point Humidity Pressure Visibility Wind Dir Wind Speed Gust Speed Precip Events Conditions
12:15 AM 75.2 °F 60.8 °F 61% 30.02 in 10.0 mi South 11.5 mph 17.3 mph N/A   Scattered Clouds
12:35 AM 75.2 °F 59.0 °F 57% 30.03 in 10.0 mi South 12.7 mph 17.3 mph N/A   Partly Cloudy
12:55 AM 75.2 °F 59.0 °F 57% 30.03 in 10.0 mi South 10.4 mph - N/A   Partly Cloudy
1:15 AM 73.4 °F 57.2 °F 57% 30.03 in 10.0 mi South 13.8 mph 17.3 mph N/A   Clear
1:35 AM 73.4 °F 57.2 °F 57% 30.01 in 10.0 mi South 12.7 mph 19.6 mph N/A   Clear
1:55 AM 73.4 °F 57.2 °F 57% 30.00 in 10.0 mi South 11.5 mph 21.9 mph N/A   Clear
2:15 AM 73.4 °F 57.2 °F 57% 30.00 in 10.0 mi South 12.7 mph 23.0 mph N/A   Clear
2:35 AM 73.4 °F 57.2 °F 57% 30.00 in 10.0 mi South 15.0 mph 24.2 mph N/A   Clear
2:55 AM 73.4 °F 55.4 °F 53% 30.01 in 10.0 mi South 12.7 mph 18.4 mph N/A   Clear
3:15 AM 71.6 °F 55.4 °F 57% 30.01 in 10.0 mi South 11.5 mph 16.1 mph N/A   Clear
3:35 AM 71.6 °F 55.4 °F 57% 30.01 in 10.0 mi South 11.5 mph - N/A   Partly Cloudy
3:55 AM 71.6 °F 55.4 °F 57% 30.00 in 10.0 mi South 11.5 mph 19.6 mph N/A   Partly Cloudy
4:15 AM 71.6 °F 55.4 °F 57% 29.99 in 10.0 mi South 15.0 mph 21.9 mph N/A   Clear
4:35 AM 71.6 °F 55.4 °F 57% 30.00 in 10.0 mi South 11.5 mph 17.3 mph N/A   Clear
4:55 AM 71.6 °F 55.4 °F 57% 30.00 in 10.0 mi South 13.8 mph 19.6 mph N/A   Clear
5:15 AM 69.8 °F 55.4 °F 60% 30.00 in 10.0 mi South 11.5 mph 18.4 mph N/A   Clear
5:35 AM 69.8 °F 55.4 °F 60% 30.00 in 10.0 mi South 15.0 mph 21.9 mph N/A   Mostly Cloudy
5:55 AM 69.8 °F 55.4 °F 60% 30.00 in 10.0 mi South 15.0 mph 24.2 mph N/A   Overcast
6:15 AM 69.8 °F 55.4 °F 60% 30.01 in 10.0 mi South 12.7 mph 20.7 mph N/A   Scattered Clouds
6:35 AM 69.8 °F 55.4 °F 60% 30.01 in 10.0 mi South 13.8 mph 21.9 mph N/A   Partly Cloudy
6:55 AM 69.8 °F 55.4 °F 60% 30.01 in 10.0 mi South 11.5 mph 19.6 mph N/A   Clear
7:15 AM 69.8 °F 55.4 °F 60% 30.02 in 10.0 mi South 12.7 mph 19.6 mph N/A   Clear
7:35 AM 69.8 °F 57.2 °F 64% 30.02 in 10.0 mi South 11.5 mph 18.4 mph N/A   Partly Cloudy
7:55 AM 69.8 °F 57.2 °F 64% 30.02 in 10.0 mi South 11.5 mph 19.6 mph N/A   Scattered Clouds
8:15 AM 69.8 °F 57.2 °F 64% 30.03 in 10.0 mi South 9.2 mph 18.4 mph N/A   Clear
8:35 AM 71.6 °F 57.2 °F 60% 30.03 in 10.0 mi South 10.4 mph 19.6 mph N/A   Clear
8:55 AM 71.6 °F 57.2 °F 60% 30.03 in 10.0 mi South 11.5 mph - N/A   Clear
9:15 AM 71.6 °F 57.2 °F 60% 30.04 in 10.0 mi South 11.5 mph - N/A   Mostly Cloudy
9:35 AM 71.6 °F 57.2 °F 60% 30.02 in 10.0 mi South 13.8 mph 18.4 mph N/A   Overcast
9:55 AM 71.6 °F 59.0 °F 64% 30.03 in 10.0 mi South 9.2 mph 16.1 mph N/A   Overcast
10:15 AM 73.4 °F 59.0 °F 61% 30.03 in 10.0 mi SSE 10.4 mph - N/A   Scattered Clouds
10:35 AM 73.4 °F 60.8 °F 65% 30.03 in 10.0 mi SSE 8.1 mph - N/A   Partly Cloudy
10:55 AM 73.4 °F 60.8 °F 65% 30.04 in 10.0 mi SSE 8.1 mph - N/A   Mostly Cloudy
11:15 AM 75.2 °F 60.8 °F 61% 30.04 in 10.0 mi SSE 9.2 mph - N/A   Mostly Cloudy
11:35 AM 75.2 °F 60.8 °F 61% 30.04 in 10.0 mi SSE 6.9 mph - N/A   Scattered Clouds
11:55 AM 75.2 °F 60.8 °F 61% 30.04 in 10.0 mi ESE 8.1 mph - N/A   Mostly Cloudy
12:15 PM 75.2 °F 60.8 °F 61% 30.06 in 10.0 mi East 16.1 mph 19.6 mph N/A   Mostly Cloudy
12:35 PM 75.2 °F 60.8 °F 61% 30.07 in 10.0 mi ESE 16.1 mph 19.6 mph N/A   Mostly Cloudy
12:55 PM 77.0 °F 60.8 °F 57% 30.07 in 10.0 mi ESE 16.1 mph 24.2 mph N/A   Partly Cloudy
1:15 PM 77.0 °F 60.8 °F 57% 30.06 in 10.0 mi SE 15.0 mph 24.2 mph N/A   Scattered Clouds
1:35 PM 75.2 °F 60.8 °F 61% 30.06 in 10.0 mi ESE 16.1 mph - N/A   Mostly Cloudy
1:55 PM 75.2 °F 60.8 °F 61% 30.04 in 10.0 mi SE 17.3 mph 24.2 mph N/A   Scattered Clouds
2:15 PM 75.2 °F 60.8 °F 61% 30.03 in 10.0 mi SE 15.0 mph 23.0 mph N/A   Clear
2:35 PM 75.2 °F 60.8 °F 61% 30.02 in 10.0 mi SSE 12.7 mph 19.6 mph N/A   Clear
2:55 PM 78.8 °F 62.6 °F 57% 30.01 in 10.0 mi SSE 16.1 mph 24.2 mph N/A   Clear
3:15 PM 78.8 °F 62.6 °F 57% 30.00 in 10.0 mi SE 15.0 mph 23.0 mph N/A   Clear
3:35 PM 78.8 °F 62.6 °F 57% 30.00 in 10.0 mi SE 15.0 mph 19.6 mph N/A   Clear
3:55 PM 78.8 °F 62.6 °F 57% 30.00 in 10.0 mi South 11.5 mph 16.1 mph N/A   Clear
4:15 PM 78.8 °F 62.6 °F 57% 30.01 in 10.0 mi SSE 10.4 mph - N/A   Clear
4:35 PM 78.8 °F 64.4 °F 61% 30.01 in 10.0 mi SE 8.1 mph - N/A   Clear
4:55 PM 78.8 °F 64.4 °F 61% 30.02 in 10.0 mi SE 6.9 mph - N/A   Clear
5:15 PM 78.8 °F 64.4 °F 61% 30.02 in 10.0 mi SE 5.8 mph - N/A   Clear
5:35 PM 78.8 °F 64.4 °F 61% 30.02 in 10.0 mi SE 9.2 mph - N/A   Clear
5:55 PM 78.8 °F 64.4 °F 61% 30.01 in 10.0 mi SE 6.9 mph - N/A   Clear
6:15 PM 78.8 °F 64.4 °F 61% 30.01 in 10.0 mi SE 8.1 mph - N/A   Clear
6:35 PM 78.8 °F 64.4 °F 61% 30.01 in 10.0 mi SE 10.4 mph - N/A   Clear
6:55 PM 78.8 °F 62.6 °F 57% 30.01 in 10.0 mi SE 12.7 mph 17.3 mph N/A   Clear
7:15 PM 78.8 °F 64.4 °F 61% 30.01 in 10.0 mi SE 16.1 mph 23.0 mph N/A   Clear
7:35 PM 77.0 °F 62.6 °F 61% 30.01 in 10.0 mi SE 15.0 mph 21.9 mph N/A   Clear
7:55 PM 75.2 °F 62.6 °F 65% 30.01 in 10.0 mi SE 13.8 mph 20.7 mph N/A   Clear
8:15 PM 75.2 °F 62.6 °F 65% 30.02 in 10.0 mi SE 11.5 mph 19.6 mph N/A   Clear
8:35 PM 73.4 °F 62.6 °F 69% 30.02 in 10.0 mi SE 13.8 mph 21.9 mph N/A   Clear
8:55 PM 73.4 °F 62.6 °F 69% 30.02 in 10.0 mi SE 11.5 mph 20.7 mph N/A   Clear
9:15 PM 73.4 °F 62.6 °F 69% 30.03 in 10.0 mi SE 13.8 mph 23.0 mph N/A   Clear
9:35 PM 71.6 °F 62.6 °F 73% 30.03 in 10.0 mi SE 11.5 mph 18.4 mph N/A   Clear
9:55 PM 71.6 °F 60.8 °F 69% 30.04 in 10.0 mi SE 12.7 mph 18.4 mph N/A   Clear
10:15 PM 71.6 °F 59.0 °F 64% 30.04 in 10.0 mi SSE 13.8 mph 18.4 mph N/A   Clear
10:35 PM 71.6 °F 59.0 °F 64% 30.04 in 10.0 mi SE 11.5 mph 18.4 mph N/A   Clear
10:55 PM 71.6 °F 57.2 °F 60% 30.05 in 10.0 mi SSE 11.5 mph 19.6 mph N/A   Clear
11:15 PM 71.6 °F 57.2 °F 60% 30.06 in 10.0 mi SSE 9.2 mph 17.3 mph N/A   Clear
11:35 PM 71.6 °F 59.0 °F 64% 30.07 in 10.0 mi SSE 9.2 mph 18.4 mph N/A   Clear
11:55 PM 71.6 °F 60.8 °F 69% 30.07 in 10.0 mi SSE 10.4 mph - N/A   Clear